Aérodrome :
LOGIN :

S'inscrire | Disclaimer

   EN    FR    IT 

 










Légende :    VFR   VFR Marginal   IFR   IFR Intensif   IFR Très Intensif
Visi : 
Plafond : 
>= 8 km
>= 3000ft
5 à 8 km
1000 à 3000 ft
1500m à 5 km
500 à 1000 ft
800 à 1500m
200 à 500 ft
< 800m
< 200 ft
Symboles :   Orages  Brouillard  Fortes neiges  Fortes précipitations  Vent > 20 kt
SIGMETs :   Divers  Orages  Givrage  Turbulence  Onde Orograph.  Cendres Volcan.







- Altitude de l'aérodrome : 1674 ft
- Code IATA : BRN


LSZB - Bern Belp

DERNIER METAR :
  • 141250Z VRB05KT 5000 RA OVC015 04/02 Q1005 TEMPO 4500 SHRA SQ

METARs EXPIRÉS :
  • 141220Z 23006KT 190V270 6000 -RA FEW015 BKN030 05/02 Q1006 TEMPO 4500 SHRA SQ
  • 141150Z 23008G18KT 160V290 8000 FEW015 BKN040 05/02 Q1006 RERA TEMPO 4500 SHRA SQ
  • 141120Z VRB08G20KT 9000 -RA SCT015 BKN025 BKN050 04/02 Q1006 TEMPO 4500 SHRA SQ
  • 141050Z 22007KT 160V280 8000 RA SCT015 BKN025 05/02 Q1007 TEMPO 4500 SHRA SQ
  • 141020Z 25009KT 190V290 9000 -RA SCT015 BKN025 05/02 Q1007 TEMPO 4500 SHRA SQ

TAF TAF LSZB
Valide du 14 à 12h jusqu'au 14 à 21h UTC


141125Z 1412/1421 22007KT 9999 SCT015 BKN025
TEMPO 1412/1421 24012G25KT 6000 SHRA
PROB30
TEMPO 1418/1421 2500 SHRASN BKN010
ATIS : +41 22 417 40 76
Pas de NOTAMs connus pour ce terrain.



MET'MAP, la Météo Aéronautique d'un coup d'oeil ! - Copyright ORBIFLY Décembre 2007 - Disclaimer

ORBIFLY MET'MAP TEAM :

Programmation & Développement : Alexandra Zaïnal
Conception & Développement : Baudouin d'Aumeries
Co-Programmation & Développement : Marc-Olivier Méhu
Soutien technique & logistique : Manuel Goepfert

Contact : metmap@orbifly.com




SOURCES & CREDITS :

   NOAA